METAR / TAF

METAR / TAF
Aktuelle Wetterdaten für Piloten (ohne Gewähr!)


Available data for LSZB from the past 2 hours
BERN/BELP
Metar
LSZB 311020Z VRB03KT 9999 BKN050 21/13 Q1019 NOSIG

10:20 UTC

Wind: ° 3kt

Visibility: 9999 m

Sky: BKN 5000 ft

Temp: 21 deg C / 69.8 deg F

Dewpoint: 13 deg C / 55.4 deg F

Pressure: 1019 hPa

TAF
TAF LSZB 310825Z 3109/3118 VRB03KT 9999 FEW025 BKN055

Available data for LSGS from the past 2 hours
SION (MIL/CIV/AU
Metar
LSGS 311020Z 25014KT 9999 FEW080 24/12 Q1017

10:20 UTC

Wind: 250° 14kt

Visibility: 9999 m

Sky: FEW 8000 ft

Temp: 24 deg C / 75.2 deg F

Dewpoint: 12 deg C / 53.6 deg F

Pressure: 1017 hPa

TAF
TAF LSGS 310825Z 3109/3118 22012KT 9999 FEW080 SCT110

Available data for LSZG from the past 2 hours
GRENCHEN
Metar
LSZG 311020Z 24004KT 200V260 9999 FEW036 SCT042 BKN048 21/12 Q1019 NOSIG

10:20 UTC

Wind: 240° 4kt

Visibility: 9999 m

Sky: FEW 3600 ft

Temp: 21 deg C / 69.8 deg F

Dewpoint: 12 deg C / 53.6 deg F

Pressure: 1019 hPa

TAF
TAF LSZG 310825Z 3109/3118 VRB03KT 9999 FEW030 SCT050 PROB40 TEMPO 3109/3111 31010KT TEMPO 3112/3115 CAVOK BECMG 3115/3118 CAVOK

Available data for LSMP from the past 2 hours
PAYERNE (MIL/AUT
Metar
LSMP 311020Z AUTO 32003KT 230V020 9999NDV BKN049 20/12 Q1020 RMK

Available data for LSZA from the past 2 hours
LUGANO (PVT/AUT)
Metar
LSZA 311020Z 03008KT 350V080 9999 FEW042 SCT060 25/17 Q1014 NOSIG

10:20 UTC

Wind: 30° 8kt

Visibility: 9999 m

Sky: FEW 4200 ft

Temp: 25 deg C / 77 deg F

Dewpoint: 17 deg C / 62.6 deg F

Pressure: 1014 hPa

TAF
TAF LSZA 310825Z 3109/3118 01008KT 9999 FEW050 SCT110 PROB40 TEMPO 3109/3112 SHRA SCT060TCU

Available data for LSZS from the past 2 hours
SAMEDAN
Metar
LSZS 311020Z 00000KT 9999 FEW009 SCT040 BKN070 13/12 Q1022 RMK J

10:20 UTC

Wind: 0° 0kt

Visibility: 9999 m

Sky: FEW 900 ft

Temp: 13 deg C / 55.4 deg F

Dewpoint: 12 deg C / 53.6 deg F

Pressure: 1022 hPa

TAF
TAF LSZS 310825Z 3109/3118 VRB03KT 9999 FEW030 BKN050 TX19/3114Z TEMPO 3109/3115 SHRA FEW040TCU PROB30 TEMPO 3109/3112 22015G25KT 4000 TSRA SCT040CB PROB40 3112/3116 22010KT